createdAt,value
2023-05-24T00:00:11.477Z,102536.16
2023-05-24T00:02:42.494Z,102535.14
2023-05-24T00:05:12.345Z,102524.05
2023-05-24T00:07:42.273Z,102527.70
2023-05-24T00:10:13.485Z,102520.30
2023-05-24T00:12:43.693Z,102526.38
2023-05-24T00:15:13.873Z,102514.19
2023-05-24T00:17:43.756Z,102514.79
2023-05-24T00:20:15.083Z,102519.87
2023-05-24T00:22:45.001Z,102514.36
2023-05-24T00:25:14.832Z,102510.19
2023-05-24T00:27:44.708Z,102505.41
2023-05-24T00:30:14.944Z,102512.48
2023-05-24T00:32:44.854Z,102500.08
2023-05-24T00:35:14.844Z,102501.72
2023-05-24T00:37:45.403Z,102497.19
2023-05-24T00:40:17.007Z,102500.41
2023-05-24T00:42:46.850Z,102491.34
2023-05-24T00:45:16.765Z,102492.62
2023-05-24T00:47:47.794Z,102487.98
2023-05-24T00:50:18.184Z,102491.05
2023-05-24T00:52:50.630Z,102490.41
2023-05-24T00:55:21.045Z,102503.11
2023-05-24T00:57:52.375Z,102494.04
2023-05-24T01:00:23.241Z,102489.87
2023-05-24T01:02:53.175Z,102497.13
2023-05-24T01:05:23.670Z,102486.22
2023-05-24T01:08:05.598Z,102477.00
2023-05-24T01:10:56.541Z,102480.88
2023-05-24T01:13:32.213Z,102474.89
2023-05-24T01:16:14.351Z,102478.50
2023-05-24T01:18:47.587Z,102475.07
2023-05-24T01:21:39.961Z,102483.08
2023-05-24T01:24:18.030Z,102470.44
2023-05-24T01:27:11.794Z,102471.20
2023-05-24T01:29:42.604Z,102475.36
2023-05-24T01:32:13.360Z,102457.22
2023-05-24T01:34:43.198Z,102471.52
2023-05-24T01:37:13.113Z,102472.77
2023-05-24T01:39:44.404Z,102468.88
2023-05-24T01:42:19.979Z,102468.88
2023-05-24T01:44:55.304Z,102472.38
2023-05-24T01:47:30.585Z,102475.34
2023-05-24T01:50:09.181Z,102477.32
2023-05-24T01:52:40.066Z,102482.95
2023-05-24T01:55:12.379Z,102482.95
2023-05-24T01:57:45.202Z,102476.05
2023-05-24T02:00:19.113Z,102480.71
2023-05-24T02:02:49.541Z,102487.44
2023-05-24T02:05:19.810Z,102484.90
2023-05-24T02:07:49.647Z,102491.26
2023-05-24T02:10:19.894Z,102492.64
2023-05-24T02:12:49.857Z,102494.05
2023-05-24T02:15:20.659Z,102501.98
2023-05-24T02:17:50.546Z,102493.48
2023-05-24T02:20:22.570Z,102488.29
2023-05-24T02:22:52.380Z,102485.03
2023-05-24T02:25:21.901Z,102494.13
2023-05-24T02:27:52.161Z,102494.85
2023-05-24T02:30:22.044Z,102483.45
2023-05-24T02:32:52.187Z,102489.25
2023-05-24T02:35:22.478Z,102490.55
2023-05-24T02:37:52.334Z,102490.55
2023-05-24T02:40:22.253Z,102493.53
2023-05-24T02:42:52.107Z,102495.52
2023-05-24T02:45:21.777Z,102490.72
2023-05-24T02:47:51.960Z,102488.70
2023-05-24T02:50:21.835Z,102491.73
2023-05-24T02:52:51.747Z,102488.51
2023-05-24T02:55:21.677Z,102491.23
2023-05-24T02:57:52.759Z,102490.79
2023-05-24T03:00:22.814Z,102485.34
2023-05-24T03:02:52.987Z,102493.95
2023-05-24T03:05:23.021Z,102491.52
2023-05-24T03:07:52.875Z,102491.33
2023-05-24T03:10:22.726Z,102493.26
2023-05-24T03:12:52.583Z,102475.86
2023-05-24T03:15:22.196Z,102482.05
2023-05-24T03:17:52.161Z,102483.77
2023-05-24T03:20:23.564Z,102481.42
2023-05-24T03:22:53.677Z,102483.38
2023-05-24T03:25:23.405Z,102477.56
2023-05-24T03:27:53.241Z,102483.23
2023-05-24T03:30:22.960Z,102474.23
2023-05-24T03:32:54.609Z,102472.34
2023-05-24T03:35:24.824Z,102478.55
2023-05-24T03:37:55.021Z,102474.88
2023-05-24T03:40:25.930Z,102475.50
2023-05-24T03:43:00.852Z,102470.77
2023-05-24T03:45:39.782Z,102473.83
2023-05-24T03:48:08.144Z,102473.45
2023-05-24T03:50:38.376Z,102464.63
2023-05-24T03:53:08.270Z,102470.89
2023-05-24T03:55:38.484Z,102462.91
2023-05-24T03:58:09.824Z,102462.34
2023-05-24T04:00:39.937Z,102454.50
2023-05-24T04:03:09.955Z,102458.42
2023-05-24T04:05:41.324Z,102458.01
2023-05-24T04:08:12.248Z,102461.97
2023-05-24T04:10:43.769Z,102462.69
2023-05-24T04:13:14.007Z,102459.02
2023-05-24T04:15:43.845Z,102464.98
2023-05-24T04:18:13.633Z,102459.20
2023-05-24T04:20:43.769Z,102465.22
2023-05-24T04:23:13.823Z,102465.22
2023-05-24T04:25:43.934Z,102467.63
2023-05-24T04:28:15.226Z,102471.00
2023-05-24T04:30:45.947Z,102466.83
2023-05-24T04:33:16.894Z,102463.89
2023-05-24T04:35:47.650Z,102467.42
2023-05-24T04:38:17.686Z,102464.91
2023-05-24T04:40:47.575Z,102468.05
2023-05-24T04:43:17.468Z,102463.69
2023-05-24T04:45:47.488Z,102463.98
2023-05-24T04:48:17.601Z,102469.98
2023-05-24T04:50:48.000Z,102473.92
2023-05-24T04:53:17.922Z,102478.99
2023-05-24T04:55:48.575Z,102481.97
2023-05-24T04:58:18.401Z,102485.73
2023-05-24T05:00:48.303Z,102497.95
2023-05-24T05:03:18.374Z,102489.73
2023-05-24T05:05:48.622Z,102490.19
2023-05-24T05:08:18.300Z,102486.66
2023-05-24T05:10:48.318Z,102479.57
2023-05-24T05:13:18.183Z,102479.80
2023-05-24T05:15:48.066Z,102483.03
2023-05-24T05:18:18.063Z,102481.50
2023-05-24T05:20:48.038Z,102488.20
2023-05-24T05:23:18.000Z,102488.20
2023-05-24T05:25:47.932Z,102480.56
2023-05-24T05:28:17.840Z,102488.65
2023-05-24T05:30:47.688Z,102487.63
2023-05-24T05:33:17.673Z,102487.53
2023-05-24T05:35:47.528Z,102487.88
2023-05-24T05:38:17.155Z,102483.14
2023-05-24T05:40:47.248Z,102486.05
2023-05-24T05:43:17.117Z,102487.42
2023-05-24T05:45:47.101Z,102489.30
2023-05-24T05:48:16.987Z,102489.47
2023-05-24T05:50:46.841Z,102486.84
2023-05-24T05:53:17.685Z,102492.61
2023-05-24T05:55:47.665Z,102487.45
2023-05-24T05:58:17.277Z,102484.58
2023-05-24T06:00:47.188Z,102484.30
2023-05-24T06:03:17.250Z,102480.95
2023-05-24T06:05:47.197Z,102480.55
2023-05-24T06:08:17.059Z,102487.66
2023-05-24T06:10:46.927Z,102481.41
2023-05-24T06:13:16.868Z,102488.86
2023-05-24T06:15:46.834Z,102491.94
2023-05-24T06:18:16.818Z,102492.33
2023-05-24T06:20:47.034Z,102489.27
2023-05-24T06:23:16.986Z,102494.73
2023-05-24T06:25:47.198Z,102502.45
2023-05-24T06:28:17.119Z,102498.59
2023-05-24T06:30:48.713Z,102489.95
2023-05-24T06:33:19.032Z,102501.73
2023-05-24T06:35:48.906Z,102498.47
2023-05-24T06:38:18.768Z,102497.31
2023-05-24T06:40:48.688Z,102492.48
2023-05-24T06:43:18.617Z,102505.98
2023-05-24T06:45:48.530Z,102506.60
2023-05-24T06:48:18.189Z,102506.17
2023-05-24T06:50:48.284Z,102503.89
2023-05-24T06:53:18.197Z,102517.19
2023-05-24T06:55:48.026Z,102512.47
2023-05-24T06:58:17.896Z,102514.34
2023-05-24T07:00:48.010Z,102521.05
2023-05-24T07:03:17.894Z,102518.14
2023-05-24T07:05:47.745Z,102516.12
2023-05-24T07:08:17.579Z,102520.19
2023-05-24T07:10:47.669Z,102519.22
2023-05-24T07:13:17.538Z,102522.02
2023-05-24T07:15:47.915Z,102523.95
2023-05-24T07:18:17.522Z,102520.34
2023-05-24T07:20:48.060Z,102517.33
2023-05-24T07:23:18.114Z,102528.71
2023-05-24T07:25:48.001Z,102520.80
2023-05-24T07:28:19.563Z,102518.05
2023-05-24T07:30:49.681Z,102527.98
2023-05-24T07:33:20.001Z,102519.25
2023-05-24T07:35:51.694Z,102521.23
2023-05-24T07:38:21.313Z,102521.23
2023-05-24T07:40:51.192Z,102527.68
2023-05-24T07:43:21.102Z,102518.73
2023-05-24T07:45:51.010Z,102516.45
2023-05-24T07:48:21.790Z,102518.57
2023-05-24T07:50:52.735Z,102500.63
2023-05-24T07:53:23.354Z,102500.63
2023-05-24T07:55:53.573Z,102515.02
2023-05-24T07:58:23.117Z,102520.21
2023-05-24T08:00:53.733Z,102517.20
2023-05-24T08:03:25.308Z,102517.13
2023-05-24T08:05:55.279Z,102513.58
2023-05-24T08:08:24.827Z,102516.07
2023-05-24T08:10:54.695Z,102509.33
2023-05-24T08:13:24.597Z,102505.23
2023-05-24T08:15:54.810Z,102491.42
2023-05-24T08:18:24.853Z,102491.42
2023-05-24T08:20:54.719Z,102503.08
2023-05-24T08:23:24.878Z,102502.73
2023-05-24T08:25:54.923Z,102507.38
2023-05-24T08:28:24.863Z,102502.66
2023-05-24T08:30:54.755Z,102500.74
2023-05-24T08:33:25.055Z,102505.53
2023-05-24T08:35:55.306Z,102498.14
2023-05-24T08:38:25.114Z,102496.06
2023-05-24T08:40:55.289Z,102497.94
2023-05-24T08:43:25.817Z,102498.70
2023-05-24T08:45:58.816Z,102474.75
2023-05-24T08:48:30.145Z,102474.75
2023-05-24T08:51:00.427Z,102492.17
2023-05-24T08:53:31.603Z,102488.55
2023-05-24T08:56:01.897Z,102488.00
2023-05-24T08:58:32.474Z,102492.64
2023-05-24T09:01:02.519Z,102492.53
2023-05-24T09:03:33.983Z,102479.42
2023-05-24T09:06:05.737Z,102488.63
2023-05-24T09:08:37.311Z,102487.17
2023-05-24T09:11:09.259Z,102476.26
2023-05-24T09:13:39.411Z,102479.95
2023-05-24T09:16:10.596Z,102484.05
2023-05-24T09:18:45.116Z,102482.80
2023-05-24T09:21:15.241Z,102479.91
2023-05-24T09:23:45.947Z,102480.75
2023-05-24T09:26:15.643Z,102486.64
2023-05-24T09:28:45.562Z,102485.92
2023-05-24T09:31:15.466Z,102489.75
2023-05-24T09:33:47.146Z,102494.19
2023-05-24T09:36:18.581Z,102488.95
2023-05-24T09:38:48.556Z,102490.25
2023-05-24T09:41:18.379Z,102490.25
2023-05-24T09:43:51.992Z,102489.83
2023-05-24T09:46:21.912Z,102487.70
2023-05-24T09:49:03.404Z,102494.72
2023-05-24T09:51:35.032Z,102488.13
2023-05-24T09:54:08.148Z,102482.42
2023-05-24T09:56:39.611Z,102494.48
2023-05-24T09:59:10.366Z,102496.95
2023-05-24T10:01:40.818Z,102499.63
2023-05-24T10:04:12.532Z,102499.63
2023-05-24T10:06:44.381Z,102494.78
2023-05-24T10:09:15.301Z,102494.59
2023-05-24T10:11:45.295Z,102490.84
2023-05-24T10:14:15.704Z,102489.91
2023-05-24T10:16:45.542Z,102495.98
2023-05-24T10:19:16.919Z,102492.90
2023-05-24T10:21:47.649Z,102493.98
2023-05-24T10:24:20.324Z,102490.78
2023-05-24T10:26:52.594Z,102489.03
2023-05-24T10:29:25.871Z,102476.53
2023-05-24T10:31:56.583Z,102486.06
2023-05-24T10:34:27.081Z,102486.06
2023-05-24T10:36:58.582Z,102486.70
2023-05-24T10:39:28.899Z,102483.70
2023-05-24T10:41:58.881Z,102483.34
2023-05-24T10:44:33.185Z,102483.92
2023-05-24T10:47:06.152Z,102482.34
2023-05-24T10:49:36.238Z,102479.47
2023-05-24T10:52:11.493Z,102484.09
2023-05-24T10:54:52.451Z,102481.51
2023-05-24T10:57:13.929Z,102476.26
2023-05-24T10:59:45.250Z,102476.83
2023-05-24T11:02:16.687Z,102478.37
2023-05-24T11:04:50.374Z,102473.47
2023-05-24T11:07:20.854Z,102465.84
2023-05-24T11:09:55.249Z,102474.69
2023-05-24T11:12:26.430Z,102474.58
2023-05-24T11:14:56.337Z,102472.97
2023-05-24T11:17:26.024Z,102478.75
2023-05-24T11:19:56.681Z,102462.72
2023-05-24T11:22:27.426Z,102473.05
2023-05-24T11:24:59.547Z,102468.98
2023-05-24T11:27:29.816Z,102475.88
2023-05-24T11:30:00.143Z,102464.86
2023-05-24T11:32:30.099Z,102470.53
2023-05-24T11:34:59.956Z,102468.92
2023-05-24T11:37:42.595Z,102466.67
2023-05-24T11:40:05.093Z,102463.45
2023-05-24T11:42:35.175Z,102467.27
2023-05-24T11:45:11.627Z,102466.81
2023-05-24T11:47:41.752Z,102472.77
2023-05-24T11:50:13.465Z,102470.10
2023-05-24T11:52:44.109Z,102470.69
2023-05-24T11:55:16.663Z,102474.72
2023-05-24T11:57:49.104Z,102466.21
2023-05-24T12:00:27.193Z,102462.58
2023-05-24T12:03:02.153Z,102461.72
2023-05-24T12:05:32.222Z,102461.34
2023-05-24T12:08:12.405Z,102460.64
2023-05-24T12:10:43.927Z,102459.45
2023-05-24T12:13:24.976Z,102450.30
2023-05-24T12:15:58.141Z,102450.30
2023-05-24T12:18:28.364Z,102451.69
2023-05-24T12:20:58.514Z,102455.16
2023-05-24T12:23:30.547Z,102450.78
2023-05-24T12:26:01.286Z,102453.58
2023-05-24T12:28:38.908Z,102450.42
2023-05-24T12:31:09.650Z,102453.19
2023-05-24T12:33:39.726Z,102448.98
2023-05-24T12:36:11.662Z,102449.63
2023-05-24T12:38:41.503Z,102453.39
2023-05-24T12:41:13.963Z,102453.08
2023-05-24T12:43:44.620Z,102452.23
2023-05-24T12:46:14.735Z,102447.95
2023-05-24T12:48:45.329Z,102447.44
2023-05-24T12:51:15.173Z,102442.45
2023-05-24T12:53:45.234Z,102439.25
2023-05-24T12:56:15.131Z,102446.06
2023-05-24T12:58:45.750Z,102420.85
2023-05-24T13:01:15.752Z,102423.59
2023-05-24T13:03:46.158Z,102423.59
2023-05-24T13:06:15.931Z,102430.90
2023-05-24T13:08:45.782Z,102428.47
2023-05-24T13:11:16.407Z,102423.30
2023-05-24T13:13:46.311Z,102419.52
2023-05-24T13:16:16.264Z,102419.49
2023-05-24T13:18:46.326Z,102419.49
2023-05-24T13:21:16.292Z,102437.02
2023-05-24T13:23:46.711Z,102436.13
2023-05-24T13:26:16.552Z,102437.34
2023-05-24T13:29:07.743Z,102439.22
2023-05-24T13:31:18.294Z,102431.62
2023-05-24T13:33:48.725Z,102438.27
2023-05-24T13:36:18.597Z,102435.35
2023-05-24T13:38:54.322Z,102433.52
2023-05-24T13:41:20.677Z,102437.34
2023-05-24T13:43:50.663Z,102431.79
2023-05-24T13:46:21.124Z,102439.13
2023-05-24T13:48:51.413Z,102436.52
2023-05-24T13:51:22.512Z,102430.63
2023-05-24T13:53:52.639Z,102434.21
2023-05-24T13:56:24.181Z,102441.40
2023-05-24T13:58:55.077Z,102436.41
2023-05-24T14:01:25.100Z,102439.25
2023-05-24T14:03:55.259Z,102432.77
2023-05-24T14:06:25.428Z,102436.29
2023-05-24T14:08:55.555Z,102436.29
2023-05-24T14:11:25.627Z,102437.64
2023-05-24T14:14:51.437Z,102433.94
2023-05-24T14:16:26.926Z,102432.09
2023-05-24T14:18:56.879Z,102435.48
2023-05-24T14:21:27.394Z,102436.26
2023-05-24T14:23:57.888Z,102429.04
2023-05-24T14:26:27.842Z,102434.83
2023-05-24T14:28:57.708Z,102435.84
2023-05-24T14:31:27.928Z,102435.59
2023-05-24T14:33:57.773Z,102431.92
2023-05-24T14:36:27.442Z,102430.87
2023-05-24T14:38:57.277Z,102429.94
2023-05-24T14:41:27.335Z,102430.80
2023-05-24T14:43:57.177Z,102439.94
2023-05-24T14:46:27.588Z,102436.67
2023-05-24T14:48:57.775Z,102439.55
2023-05-24T14:51:27.617Z,102435.48
2023-05-24T14:53:57.818Z,102436.79
2023-05-24T14:56:27.429Z,102437.05
2023-05-24T14:58:57.647Z,102438.93
2023-05-24T15:01:27.537Z,102441.94
2023-05-24T15:03:57.483Z,102439.78
2023-05-24T15:06:27.182Z,102439.82
2023-05-24T15:08:57.011Z,102446.31
2023-05-24T15:11:26.938Z,102444.28
2023-05-24T15:13:58.431Z,102440.51
2023-05-24T15:16:28.709Z,102446.64
2023-05-24T15:18:58.528Z,102446.27
2023-05-24T15:21:28.438Z,102451.52
2023-05-24T15:23:58.290Z,102446.50
2023-05-24T15:26:28.211Z,102444.13
2023-05-24T15:28:58.229Z,102441.59
2023-05-24T15:31:28.161Z,102448.36
2023-05-24T15:33:58.120Z,102448.02
2023-05-24T15:36:27.928Z,102453.23
2023-05-24T15:38:58.064Z,102451.35
2023-05-24T15:41:28.305Z,102451.47
2023-05-24T15:43:59.858Z,102453.41
2023-05-24T15:46:30.009Z,102455.25
2023-05-24T15:54:09.912Z,102456.22
2023-05-24T15:56:39.749Z,102455.98
2023-05-24T15:59:09.616Z,102458.95
2023-05-24T16:01:39.535Z,102439.20
2023-05-24T16:04:11.202Z,102439.20
2023-05-24T16:06:41.091Z,102455.39
2023-05-24T16:09:10.965Z,102453.58
2023-05-24T16:11:40.996Z,102452.57
2023-05-24T16:33:25.219Z,102435.30
2023-05-24T16:36:01.213Z,102447.63
2023-05-24T16:38:29.990Z,102439.66
2023-05-24T16:41:00.292Z,102429.09
2023-05-24T16:43:30.305Z,102428.22
2023-05-24T16:46:01.505Z,102427.49
2023-05-24T16:48:31.654Z,102425.97
2023-05-24T16:51:01.913Z,102423.78
2023-05-24T16:53:31.821Z,102417.50
2023-05-24T16:56:01.672Z,102413.98
2023-05-24T16:58:32.087Z,102414.29
2023-05-24T17:01:01.946Z,102414.58
2023-05-24T17:03:33.972Z,102425.40
2023-05-24T17:06:05.375Z,102418.66
2023-05-24T17:08:36.875Z,102419.71
2023-05-24T17:11:08.846Z,102409.75
2023-05-24T17:13:38.982Z,102417.05
2023-05-24T17:16:11.614Z,102417.41
2023-05-24T17:18:41.703Z,102416.18
2023-05-24T17:21:11.915Z,102413.26
2023-05-24T17:23:41.484Z,102418.04
2023-05-24T17:26:14.836Z,102417.50
2023-05-24T17:28:46.132Z,102418.42
2023-05-24T17:31:16.534Z,102424.39
2023-05-24T17:33:46.525Z,102423.28
2023-05-24T17:36:16.407Z,102424.05
2023-05-24T17:38:46.248Z,102424.87
2023-05-24T17:41:16.112Z,102428.43
2023-05-24T17:43:46.027Z,102418.40
2023-05-24T17:46:17.319Z,102419.81
2023-05-24T17:48:47.927Z,102424.05
2023-05-24T17:51:19.545Z,102429.23
2023-05-24T17:53:49.163Z,102423.42
2023-05-24T17:56:19.209Z,102428.62
2023-05-24T17:58:50.012Z,102431.81
2023-05-24T18:01:20.370Z,102434.52
2023-05-24T18:03:50.176Z,102434.52
2023-05-24T18:06:19.735Z,102441.58
2023-05-24T18:08:49.593Z,102452.98
2023-05-24T18:11:19.514Z,102444.15
2023-05-24T18:13:49.664Z,102453.08
2023-05-24T18:16:19.565Z,102450.70
2023-05-24T18:18:49.791Z,102454.72
2023-05-24T18:21:19.630Z,102454.72
2023-05-24T18:23:49.872Z,102458.11
2023-05-24T18:26:19.732Z,102456.57
2023-05-24T18:28:49.867Z,102452.03
2023-05-24T18:31:20.467Z,102448.28
2023-05-24T18:33:50.445Z,102455.31
2023-05-24T18:36:20.105Z,102453.23
2023-05-24T18:38:50.086Z,102451.93
2023-05-24T18:41:19.916Z,102461.59
2023-05-24T18:43:49.793Z,102461.59
2023-05-24T18:46:19.628Z,102461.78
2023-05-24T18:48:49.510Z,102467.22
2023-05-24T18:51:19.576Z,102465.95
2023-05-24T18:53:51.632Z,102471.38
2023-05-24T18:56:21.872Z,102471.38
2023-05-24T18:58:52.079Z,102474.92
2023-05-24T19:01:21.995Z,102472.59
2023-05-24T19:03:51.876Z,102467.84
2023-05-24T19:06:21.715Z,102468.52
2023-05-24T19:08:51.571Z,102474.02
2023-05-24T19:11:21.421Z,102468.51
2023-05-24T19:13:50.955Z,102476.46
2023-05-24T19:16:21.138Z,102481.27
2023-05-24T19:18:51.321Z,102485.66
2023-05-24T19:21:22.882Z,102485.66
2023-05-24T19:23:52.799Z,102489.73
2023-05-24T19:26:22.628Z,102479.91
2023-05-24T19:28:54.094Z,102493.42
2023-05-24T19:31:26.026Z,102493.42
2023-05-24T19:34:00.359Z,102497.95
2023-05-24T19:36:27.766Z,102494.48
2023-05-24T19:38:57.651Z,102504.87
2023-05-24T19:41:27.915Z,102501.13
2023-05-24T19:43:58.714Z,102501.13
2023-05-24T19:46:29.728Z,102503.87
2023-05-24T19:49:00.517Z,102503.87
2023-05-24T19:51:30.370Z,102508.95
2023-05-24T19:54:00.588Z,102510.72
2023-05-24T19:56:30.434Z,102517.48
2023-05-24T19:59:00.457Z,102523.73
2023-05-24T20:01:30.321Z,102521.58
2023-05-24T20:04:00.366Z,102525.00
2023-05-24T20:06:30.065Z,102524.48
2023-05-24T20:09:00.357Z,102523.66
2023-05-24T20:11:30.450Z,102523.66
2023-05-24T20:14:00.337Z,102526.55
2023-05-24T20:16:31.383Z,102533.05
2023-05-24T20:19:01.293Z,102534.16
2023-05-24T20:21:31.211Z,102535.30
2023-05-24T20:24:01.378Z,102537.40
2023-05-24T20:26:32.710Z,102537.40
2023-05-24T20:29:02.941Z,102541.63
2023-05-24T20:31:33.090Z,102541.63
2023-05-24T20:34:02.949Z,102548.34
2023-05-24T20:36:33.188Z,102545.33
2023-05-24T20:39:03.084Z,102551.54
2023-05-24T20:41:34.165Z,102562.05
2023-05-24T20:44:04.028Z,102554.94
2023-05-24T20:46:34.058Z,102560.61
2023-05-24T20:49:06.061Z,102556.45
2023-05-24T20:51:36.387Z,102555.30
2023-05-24T20:54:06.407Z,102555.30
2023-05-24T20:56:36.370Z,102559.31
2023-05-24T20:59:06.392Z,102562.89
2023-05-24T21:01:36.278Z,102555.81
2023-05-24T21:04:06.456Z,102561.38
2023-05-24T21:06:36.558Z,102564.08
2023-05-24T21:09:06.785Z,102567.57
2023-05-24T21:11:36.650Z,102565.20
2023-05-24T21:14:06.816Z,102569.64
2023-05-24T21:16:37.226Z,102570.49
2023-05-24T21:19:07.176Z,102572.24
2023-05-24T21:21:37.767Z,102574.34
2023-05-24T21:24:08.778Z,102580.00
2023-05-24T21:26:38.642Z,102581.38
2023-05-24T21:29:08.566Z,102583.08
2023-05-24T21:31:38.742Z,102591.56
2023-05-24T21:34:10.182Z,102580.49
2023-05-24T21:36:40.024Z,102583.94
2023-05-24T21:39:09.964Z,102592.70
2023-05-24T21:41:39.845Z,102596.66
2023-05-24T21:44:11.941Z,102595.81
2023-05-24T21:46:41.823Z,102595.19
2023-05-24T21:49:11.681Z,102599.30
2023-05-24T21:51:41.571Z,102606.14
2023-05-24T21:54:13.744Z,102606.13
2023-05-24T21:56:43.583Z,102607.34
2023-05-24T21:59:13.290Z,102601.41
2023-05-24T22:01:43.220Z,102603.45
2023-05-24T22:04:13.529Z,102603.80
2023-05-24T22:06:44.752Z,102608.89
2023-05-24T22:09:14.456Z,102606.33
2023-05-24T22:11:44.309Z,102607.01
2023-05-24T22:14:15.304Z,102611.30
2023-05-24T22:16:45.189Z,102613.85
2023-05-24T22:19:18.398Z,102616.77
2023-05-24T22:21:48.937Z,102620.87
2023-05-24T22:24:18.865Z,102619.16
2023-05-24T22:26:49.895Z,102619.17
2023-05-24T22:29:20.614Z,102617.82
2023-05-24T22:31:50.485Z,102627.06
2023-05-24T22:34:27.706Z,102627.06
2023-05-24T22:36:57.991Z,102624.84
2023-05-24T22:39:28.397Z,102634.58
2023-05-24T22:41:58.271Z,102635.27
2023-05-24T22:44:28.464Z,102637.31
2023-05-24T22:46:58.324Z,102640.70
2023-05-24T22:49:29.468Z,102640.88
2023-05-24T22:52:00.359Z,102637.48
2023-05-24T22:54:30.500Z,102637.83
2023-05-24T22:57:00.950Z,102639.34
2023-05-24T22:59:32.643Z,102636.61
2023-05-24T23:02:02.650Z,102636.95
2023-05-24T23:04:33.568Z,102636.45
2023-05-24T23:07:03.450Z,102634.06
2023-05-24T23:09:36.446Z,102641.91
2023-05-24T23:12:08.283Z,102641.55
2023-05-24T23:14:41.368Z,102643.78
2023-05-24T23:17:15.170Z,102642.58
2023-05-24T23:19:45.440Z,102640.02
2023-05-24T23:22:18.828Z,102647.19
2023-05-24T23:24:49.045Z,102642.57
2023-05-24T23:35:42.958Z,102641.32
2023-05-24T23:38:13.871Z,102636.05
2023-05-24T23:40:44.034Z,102639.11
2023-05-24T23:43:14.172Z,102639.11
2023-05-24T23:45:44.302Z,102629.19
2023-05-24T23:48:15.021Z,102631.73
2023-05-24T23:50:54.066Z,102630.02
2023-05-24T23:53:16.731Z,102631.92
2023-05-24T23:55:46.570Z,102634.08
2023-05-24T23:58:16.774Z,102629.20
